HKMOGOOY

Guest
Details From HKMO - Mombasa Moi Intl
To GOOY - Dakar Leopold Sedar Senghor Intl
Flight Number -
Tags Generated
Created
Modified
Stats Distance 3,579 nm / 6,629 km
Max Altitude 0 ft / 0 m
Waypoints 7
Social Downloads 0
Likes 0
Share VATSIM

Download

Looking for another format? Having issues loading an existing format? Contact us
Advertisement - Login to hide

Notes

Generated

Route

HKMO IL KILMO BIGOM TD R2376 GOOY

ID Type Via Altitude Latitude Longitude Leg Dist Tot Dist Heading (true) Name
O HKMO APT - 0 ft / 0 m -4.02983˚ 39.59137˚ - 0 nm - -
IL VOR - 0 ft / 0 m 8.38837˚ 4.43088˚ 2234 nm 2234 nm 290° / 288° ILORIN VOR-DME
KILMO FIX - 0 ft / 0 m 9.45194˚ 0.98472˚ 214 nm 2448 nm 288° / 287° -
BIGOM FIX - 0 ft / 0 m 10.53083˚ -3.08444˚ 249 nm 2697 nm 285° / 285° -
TD VOR - 0 ft / 0 m 13.72769˚ -13.66397˚ 650 nm 3347 nm 288° / 286° TAMBACOUNDA VOR
R2376 FIX - 0 ft / 0 m 14.72583˚ -17.47672˚ 229 nm 3577 nm 286° / 285° -
O GOOY APT - 0 ft / 0 m 14.73171˚ -17.50427˚ 1 nm 3579 nm 282° / 282° -

Altitude Profile

Advertisement - Login to hide

Weather


0- 5 10 15 20 25 30 35+ Temperature / ° C

Clouds and Precipitation
Forecast for 2017-12-18 06:00 UTC. Updated 2 hours ago

Ground ~20,000 ft ~40,000 ft Winds

HKMO

Details ICAO HKMO (MBA)
Name MOMBASA MOI INTL
Region Kenya
Timezone Africa/Nairobi (UTC+3.0)
Stats Elevation 200 ft / 61 m (AMSL)
Location -4.030744° 39.596732°
Runways 2
Magnetic Variation 0.939° W

METAR

HKMO 180400Z 00000KT 9999 FEW020 24/23 Q1014 NOSIG

Decode

TAF

TAF HKMO 172300Z 1800/1906 00000KT 9999 FEW020 BECMG 1809/1812 06010KT SCT025 BECMG 1819/1822 04004KT FEW022 BECMG 1900/1906 00000KT FEW019

Decode

Departure Runways

ID Width Length Bearing (true) Bearing (mag) Surface Threshold Offset Overrun Length
03 151 ft / 46 m 11,040 ft / 3,365 m 29.14° 30.08° Asphalt 2,503 ft / 763 m 197 ft / 60 m
15 118 ft / 36 m 4,492 ft / 1,369 m 150.47° 151.41° Asphalt 0 ft / 0 m 190 ft / 58 m
21 151 ft / 46 m 11,040 ft / 3,365 m 209.14° 210.08° Asphalt 0 ft / 0 m 197 ft / 60 m
33 118 ft / 36 m 4,492 ft / 1,369 m 330.47° 331.41° Asphalt 0 ft / 0 m 250 ft / 76 m

GOOY

Details ICAO GOOY (DKR)
Name Dakar Leopold Sedar Senghor Intl
Region Senegal
Timezone Africa/Dakar (UTC+0.0)
Stats Elevation 85 ft / 26 m (AMSL)
Location 14.739711° -17.490226°
Runways 2
Magnetic Variation 7.346° W

METAR

GOOY 180400Z 02011KT 8000 NSC 20/17 Q1014

Decode

TAF

TAF GOOY 172330Z 1800/1906 02013KT 8000 NSC= TAF GBYD 172330Z 1800/1906 06008KT CAVOK

Decode

Destination Runways

ID Width Length Bearing (true) Bearing (mag) Surface Threshold Offset Overrun Length
03 98 ft / 30 m 4,921 ft / 1,500 m 22.31° 29.66° Asphalt 0 ft / 0 m 98 ft / 30 m
18 148 ft / 45 m 11,511 ft / 3,509 m 172.57° 179.92° Asphalt 525 ft / 160 m 197 ft / 60 m
21 98 ft / 30 m 4,921 ft / 1,500 m 202.31° 209.66° Asphalt 0 ft / 0 m 1,590 ft / 485 m
36 148 ft / 45 m 11,511 ft / 3,509 m 352.57° 359.92° Asphalt 0 ft / 0 m 197 ft / 60 m

Approach Navaids

Runway Type Ident Frequency Range Bearing (true) Bearing (mag) Slope Elevation
36 Localiser YF 110.30 MHz 18 nm / 33 km 352.33° 359.67° - 65 ft / 20 m (AMSL)
36 Glidescope YF 110.30 MHz 10 nm / 19 km 352.57° 359.92° 3.01° 73 ft / 22 m (AMSL)
36 DME YF 110.30 MHz 18 nm / 33 km - - - 73 ft / 22 m (AMSL)